Atlantic Mine, Michigan
Current Conditions -  °F | °C
As of 2:53 AM on Sunday 26 Oct 2014 (Local Time) from KCMX Reporting Station
Clear Clear  
Wind Chill: 38°   Ceiling: Unl
Heat Index: 43°   Visibility: 10mi
Dew Point: 33°   Wind: 9mph
Humidity: 68%   Direction: 310°NW
Pressure: 29.88"   Gusts: NA
Location:  47.1°N, 88.63°W
Report Text: KCMX 260653Z AUTO 31008KT 10SM CLR 06/01 A2988 RMK AO2 SLP123 T00610006
Loading
Personal Weather Stations






























Interactive Weather Map
Tropical Storm Tracking
New forecast layout! Learn more

10-Day Weather Forecast

Advertisements
Track Severe Weather on mobile